Weather at Penghu Airport [CLOSED]

Public forecast

Using degrees Celsius for public forecast. Weather courtesy of forecast.io.

Closest aviation weather report (METAR) to Penghu Airport

Closest report is Tainan International Airport / Tainan Air Base, 48.4 nm (89.6 km) SE.

2023/01/28 20:00 (retrieved 42 minutes ago)

RCNN 282000Z 35005KT 9999 FEW012 BKN050 09/02 Q1020 RMK A3013

Closest aviation forecast (TAF) to Penghu Airport

Closest forecast is Tainan International Airport / Tainan Air Base, 48.4 nm (89.6 km) SE.

2023/01/28 18:21 (retrieved 2 hours ago)

TAF RCNN 281700Z 2818/2918 01010KT 9999 FEW012 BKN060 TX19/2905Z TN08/2820Z BECMG 2820/2823 01004KT BECMG 2901/2904 35008KT FEW012 SCT060 BECMG 2908/2911 FEW012 BKN050 BECMG 2914/2917 02004KT FEW012 SCT060